sensor_id;sensor_type;location;lat;lon;timestamp;pressure;altitude;pressure_sealevel;temperature;humidity
68994;BME280;56054;50.968;5.816;2023-04-05T05:08:56;101446.59;;;1.57;97.04
68994;BME280;56054;50.968;5.816;2023-04-05T05:12:09;101456.03;;;1.65;98.64
68994;BME280;56054;50.968;5.816;2023-04-05T05:15:22;101451.38;;;1.54;98.20
68994;BME280;56054;50.968;5.816;2023-04-05T05:18:32;101455.38;;;1.59;97.17
68994;BME280;56054;50.968;5.816;2023-04-05T05:21:55;101448.31;;;1.49;98.28
68994;BME280;56054;50.968;5.816;2023-04-05T05:25:13;101453.13;;;1.62;98.77
68994;BME280;56054;50.968;5.816;2023-04-05T05:28:26;101456.38;;;1.68;98.17
68994;BME280;56054;50.968;5.816;2023-04-05T05:31:43;101453.06;;;1.69;97.59
68994;BME280;56054;50.968;5.816;2023-04-05T05:35:02;101458.50;;;1.73;97.20
68994;BME280;56054;50.968;5.816;2023-04-05T05:38:12;101458.66;;;1.58;97.27
68994;BME280;56054;50.968;5.816;2023-04-05T05:41:43;101458.50;;;1.73;97.42
68994;BME280;56054;50.968;5.816;2023-04-05T05:45:01;101448.63;;;1.76;98.11
68994;BME280;56054;50.968;5.816;2023-04-05T05:48:19;101443.41;;;1.83;98.35
68994;BME280;56054;50.968;5.816;2023-04-05T05:51:35;101446.97;;;1.92;97.79
68994;BME280;56054;50.968;5.816;2023-04-05T05:58:41;101451.63;;;2.03;97.88
68994;BME280;56054;50.968;5.816;2023-04-05T06:02:10;101453.59;;;2.06;99.12
68994;BME280;56054;50.968;5.816;2023-04-05T06:05:32;101446.22;;;2.09;99.01
68994;BME280;56054;50.968;5.816;2023-04-05T06:08:50;101449.13;;;2.28;98.02
68994;BME280;56054;50.968;5.816;2023-04-05T06:12:41;101450.44;;;2.40;98.73
68994;BME280;56054;50.968;5.816;2023-04-05T06:15:53;101442.56;;;2.39;98.53
68994;BME280;56054;50.968;5.816;2023-04-05T06:19:40;101450.50;;;2.49;98.29
68994;BME280;56054;50.968;5.816;2023-04-05T06:22:54;101454.03;;;2.58;97.16
68994;BME280;56054;50.968;5.816;2023-04-05T06:26:24;101440.16;;;2.40;98.09
68994;BME280;56054;50.968;5.816;2023-04-05T06:29:37;101452.19;;;2.73;97.43
68994;BME280;56054;50.968;5.816;2023-04-05T06:33:05;101457.09;;;2.63;96.73
68994;BME280;56054;50.968;5.816;2023-04-05T06:36:15;101455.00;;;2.83;95.77
68994;BME280;56054;50.968;5.816;2023-04-05T06:39:30;101455.31;;;2.86;95.68
68994;BME280;56054;50.968;5.816;2023-04-05T06:42:39;101450.47;;;2.89;94.94
68994;BME280;56054;50.968;5.816;2023-04-05T06:46:07;101443.66;;;2.81;94.93
68994;BME280;56054;50.968;5.816;2023-04-05T06:49:28;101449.31;;;2.94;94.23
68994;BME280;56054;50.968;5.816;2023-04-05T06:53:04;101443.44;;;2.95;92.46
68994;BME280;56054;50.968;5.816;2023-04-05T06:56:13;101444.50;;;3.31;92.59
68994;BME280;56054;50.968;5.816;2023-04-05T06:59:37;101452.88;;;3.37;90.69
68994;BME280;56054;50.968;5.816;2023-04-05T07:02:48;101448.16;;;3.33;89.04
68994;BME280;56054;50.968;5.816;2023-04-05T07:10:21;101446.91;;;3.62;87.83
68994;BME280;56054;50.968;5.816;2023-04-05T07:13:33;101448.19;;;3.83;86.16
68994;BME280;56054;50.968;5.816;2023-04-05T07:16:58;101447.34;;;4.18;86.79
68994;BME280;56054;50.968;5.816;2023-04-05T07:20:05;101446.72;;;4.12;83.65
68994;BME280;56054;50.968;5.816;2023-04-05T07:23:12;101454.00;;;4.42;82.74
68994;BME280;56054;50.968;5.816;2023-04-05T07:26:19;101447.03;;;4.41;83.79
68994;BME280;56054;50.968;5.816;2023-04-05T07:29:31;101459.44;;;4.45;83.64
68994;BME280;56054;50.968;5.816;2023-04-05T07:32:46;101460.97;;;4.52;83.50
68994;BME280;56054;50.968;5.816;2023-04-05T07:35:56;101454.72;;;4.93;85.66
68994;BME280;56054;50.968;5.816;2023-04-05T07:39:12;101451.53;;;4.87;84.17
68994;BME280;56054;50.968;5.816;2023-04-05T07:42:23;101449.09;;;5.06;84.27
68994;BME280;56054;50.968;5.816;2023-04-05T07:45:49;101459.66;;;5.18;83.35
68994;BME280;56054;50.968;5.816;2023-04-05T07:48:56;101457.84;;;5.53;85.38
68994;BME280;56054;50.968;5.816;2023-04-05T07:52:04;101455.91;;;5.50;83.00
68994;BME280;56054;50.968;5.816;2023-04-05T07:55:11;101462.88;;;5.51;82.19
68994;BME280;56054;50.968;5.816;2023-04-05T07:58:24;101461.84;;;5.77;82.60
68994;BME280;56054;50.968;5.816;2023-04-05T08:01:35;101460.13;;;5.86;80.44
68994;BME280;56054;50.968;5.816;2023-04-05T08:05:11;101454.34;;;5.97;80.80
68994;BME280;56054;50.968;5.816;2023-04-05T08:08:20;101460.81;;;6.21;81.18
68994;BME280;56054;50.968;5.816;2023-04-05T08:11:36;101461.88;;;6.24;78.79
68994;BME280;56054;50.968;5.816;2023-04-05T08:14:57;101460.34;;;6.26;78.94
68994;BME280;56054;50.968;5.816;2023-04-05T08:18:04;101465.66;;;6.46;78.56
68994;BME280;56054;50.968;5.816;2023-04-05T08:21:16;101463.06;;;6.65;76.67
68994;BME280;56054;50.968;5.816;2023-04-05T08:24:25;101455.53;;;6.58;75.53
68994;BME280;56054;50.968;5.816;2023-04-05T08:27:32;101455.97;;;6.92;75.90
68994;BME280;56054;50.968;5.816;2023-04-05T08:30:40;101458.53;;;7.11;75.79
68994;BME280;56054;50.968;5.816;2023-04-05T08:33:47;101458.38;;;7.09;75.10
68994;BME280;56054;50.968;5.816;2023-04-05T08:36:58;101460.25;;;7.20;71.20
68994;BME280;56054;50.968;5.816;2023-04-05T08:40:05;101457.50;;;7.19;71.87
68994;BME280;56054;50.968;5.816;2023-04-05T08:47:01;101446.00;;;7.55;67.57
68994;BME280;56054;50.968;5.816;2023-04-05T08:50:09;101449.13;;;7.61;66.04
68994;BME280;56054;50.968;5.816;2023-04-05T08:53:16;101448.09;;;7.69;63.32
68994;BME280;56054;50.968;5.816;2023-04-05T08:56:30;101447.06;;;7.67;60.70
68994;BME280;56054;50.968;5.816;2023-04-05T08:59:38;101438.50;;;7.68;61.08
68994;BME280;56054;50.968;5.816;2023-04-05T09:02:52;101444.22;;;7.94;57.63
68994;BME280;56054;50.968;5.816;2023-04-05T09:06:01;101439.56;;;8.21;55.75
68994;BME280;56054;50.968;5.816;2023-04-05T09:09:16;101453.28;;;8.20;55.40
68994;BME280;56054;50.968;5.816;2023-04-05T09:12:25;101445.66;;;8.42;52.72
68994;BME280;56054;50.968;5.816;2023-04-05T09:15:37;101438.94;;;8.44;51.69
68994;BME280;56054;50.968;5.816;2023-04-05T09:18:51;101449.81;;;8.20;49.40
68994;BME280;56054;50.968;5.816;2023-04-05T09:22:09;101439.84;;;8.45;49.43
68994;BME280;56054;50.968;5.816;2023-04-05T09:25:46;101426.09;;;8.46;46.20
68994;BME280;56054;50.968;5.816;2023-04-05T09:28:53;101435.34;;;8.74;49.25
68994;BME280;56054;50.968;5.816;2023-04-05T09:32:04;101434.22;;;8.71;50.88
68994;BME280;56054;50.968;5.816;2023-04-05T09:35:18;101429.47;;;8.87;49.83
68994;BME280;56054;50.968;5.816;2023-04-05T09:38:44;101434.78;;;8.89;51.39
68994;BME280;56054;50.968;5.816;2023-04-05T09:42:18;101433.97;;;9.00;51.87
68994;BME280;56054;50.968;5.816;2023-04-05T09:45:26;101440.13;;;8.80;48.50
68994;BME280;56054;50.968;5.816;2023-04-05T09:48:48;101432.28;;;9.00;47.39
68994;BME280;56054;50.968;5.816;2023-04-05T09:52:25;101425.78;;;9.06;48.83
68994;BME280;56054;50.968;5.816;2023-04-05T09:55:32;101430.00;;;9.15;49.38
68994;BME280;56054;50.968;5.816;2023-04-05T09:58:41;101425.66;;;9.04;48.80
68994;BME280;56054;50.968;5.816;2023-04-05T10:01:50;101419.94;;;9.08;48.91
68994;BME280;56054;50.968;5.816;2023-04-05T10:05:04;101422.09;;;9.14;48.26
68994;BME280;56054;50.968;5.816;2023-04-05T10:08:13;101420.44;;;9.36;47.74
68994;BME280;56054;50.968;5.816;2023-04-05T10:11:51;101406.53;;;9.14;47.04
68994;BME280;56054;50.968;5.816;2023-04-05T10:14:58;101411.03;;;9.27;47.54
68994;BME280;56054;50.968;5.816;2023-04-05T10:18:39;101407.56;;;9.16;46.94
68994;BME280;56054;50.968;5.816;2023-04-05T10:21:48;101403.78;;;9.45;47.59
68994;BME280;56054;50.968;5.816;2023-04-05T10:25:08;101412.25;;;9.76;47.59
68994;BME280;56054;50.968;5.816;2023-04-05T10:31:40;101399.06;;;9.51;45.80
68994;BME280;56054;50.968;5.816;2023-04-05T10:35:01;101396.03;;;9.78;46.23
68994;BME280;56054;50.968;5.816;2023-04-05T10:38:22;101402.56;;;9.85;45.54
68994;BME280;56054;50.968;5.816;2023-04-05T10:41:35;101403.44;;;9.74;44.45
68994;BME280;56054;50.968;5.816;2023-04-05T10:44:51;101405.78;;;9.93;45.44
68994;BME280;56054;50.968;5.816;2023-04-05T10:48:15;101412.06;;;9.84;43.56
68994;BME280;56054;50.968;5.816;2023-04-05T10:51:25;101405.47;;;10.00;44.05
68994;BME280;56054;50.968;5.816;2023-04-05T10:54:35;101395.19;;;10.13;43.63
68994;BME280;56054;50.968;5.816;2023-04-05T10:57:44;101384.81;;;10.25;44.21
68994;BME280;56054;50.968;5.816;2023-04-05T11:00:56;101386.28;;;10.21;44.49
68994;BME280;56054;50.968;5.816;2023-04-05T11:04:16;101383.41;;;10.40;44.54
68994;BME280;56054;50.968;5.816;2023-04-05T11:07:23;101388.88;;;10.21;44.49
68994;BME280;56054;50.968;5.816;2023-04-05T11:10:34;101378.72;;;10.24;44.96
68994;BME280;56054;50.968;5.816;2023-04-05T11:13:55;101379.78;;;10.50;44.88
68994;BME280;56054;50.968;5.816;2023-04-05T11:17:26;101367.78;;;10.28;43.40
68994;BME280;56054;50.968;5.816;2023-04-05T11:24:21;101365.13;;;10.39;43.35
68994;BME280;56054;50.968;5.816;2023-04-05T11:27:36;101363.28;;;10.49;43.17
68994;BME280;56054;50.968;5.816;2023-04-05T11:30:50;101356.72;;;10.55;43.10
68994;BME280;56054;50.968;5.816;2023-04-05T11:33:59;101348.72;;;10.40;42.66
68994;BME280;56054;50.968;5.816;2023-04-05T11:37:09;101344.53;;;10.54;42.26
68994;BME280;56054;50.968;5.816;2023-04-05T11:40:35;101341.88;;;10.89;42.66
68994;BME280;56054;50.968;5.816;2023-04-05T11:43:46;101331.28;;;10.74;41.94
68994;BME280;56054;50.968;5.816;2023-04-05T11:46:55;101331.81;;;10.93;42.72
68994;BME280;56054;50.968;5.816;2023-04-05T11:50:03;101323.69;;;10.77;41.28
68994;BME280;56054;50.968;5.816;2023-04-05T11:53:16;101319.84;;;11.46;40.99
68994;BME280;56054;50.968;5.816;2023-04-05T11:56:23;101324.81;;;10.92;40.55
68994;BME280;56054;50.968;5.816;2023-04-05T11:59:32;101322.59;;;11.10;40.20
68994;BME280;56054;50.968;5.816;2023-04-05T12:02:42;101309.59;;;11.10;40.71
68994;BME280;56054;50.968;5.816;2023-04-05T12:05:53;101307.28;;;11.27;40.78
68994;BME280;56054;50.968;5.816;2023-04-05T12:09:00;101307.31;;;11.40;40.61
68994;BME280;56054;50.968;5.816;2023-04-05T12:12:19;101301.47;;;11.31;40.06
68994;BME280;56054;50.968;5.816;2023-04-05T12:15:26;101298.28;;;11.35;39.91
68994;BME280;56054;50.968;5.816;2023-04-05T12:18:35;101293.63;;;11.18;39.38
68994;BME280;56054;50.968;5.816;2023-04-05T12:21:50;101293.91;;;11.34;40.37
68994;BME280;56054;50.968;5.816;2023-04-05T12:24:57;101296.31;;;11.44;40.48
68994;BME280;56054;50.968;5.816;2023-04-05T12:28:05;101290.94;;;11.54;41.84
68994;BME280;56054;50.968;5.816;2023-04-05T12:31:12;101293.09;;;11.35;41.17
68994;BME280;56054;50.968;5.816;2023-04-05T12:34:23;101283.28;;;10.94;40.83
68994;BME280;56054;50.968;5.816;2023-04-05T12:37:33;101280.53;;;11.04;40.89
68994;BME280;56054;50.968;5.816;2023-04-05T12:41:12;101275.94;;;11.00;40.46
68994;BME280;56054;50.968;5.816;2023-04-05T12:44:29;101278.25;;;11.59;41.13
68994;BME280;56054;50.968;5.816;2023-04-05T12:47:56;101267.91;;;11.47;40.54
68994;BME280;56054;50.968;5.816;2023-04-05T12:51:15;101262.31;;;11.68;39.81
68994;BME280;56054;50.968;5.816;2023-04-05T12:54:23;101263.53;;;11.60;40.90
68994;BME280;56054;50.968;5.816;2023-04-05T12:57:31;101264.53;;;12.00;40.66
68994;BME280;56054;50.968;5.816;2023-04-05T13:00:39;101257.69;;;11.50;39.30
68994;BME280;56054;50.968;5.816;2023-04-05T13:03:46;101255.75;;;11.73;39.57
68994;BME280;56054;50.968;5.816;2023-04-05T13:06:53;101251.81;;;12.05;39.86
68994;BME280;56054;50.968;5.816;2023-04-05T13:10:00;101239.72;;;11.67;38.93
68994;BME280;56054;50.968;5.816;2023-04-05T13:13:07;101239.41;;;11.62;37.65
68994;BME280;56054;50.968;5.816;2023-04-05T13:16:14;101240.94;;;11.85;38.04
68994;BME280;56054;50.968;5.816;2023-04-05T13:19:21;101240.16;;;11.99;37.96
68994;BME280;56054;50.968;5.816;2023-04-05T13:22:28;101236.97;;;12.17;37.82
68994;BME280;56054;50.968;5.816;2023-04-05T13:25:39;101232.16;;;12.10;37.41
68994;BME280;56054;50.968;5.816;2023-04-05T13:28:46;101242.56;;;12.36;38.48
68994;BME280;56054;50.968;5.816;2023-04-05T13:31:53;101235.72;;;12.38;37.53
68994;BME280;56054;50.968;5.816;2023-04-05T13:35:06;101229.22;;;12.32;36.90
68994;BME280;56054;50.968;5.816;2023-04-05T13:38:13;101218.88;;;12.47;37.51
68994;BME280;56054;50.968;5.816;2023-04-05T13:41:20;101220.94;;;12.24;36.38
68994;BME280;56054;50.968;5.816;2023-04-05T13:44:31;101218.34;;;12.66;36.72
68994;BME280;56054;50.968;5.816;2023-04-05T13:47:45;101218.56;;;12.83;37.32
68994;BME280;56054;50.968;5.816;2023-04-05T13:50:55;101209.03;;;12.56;35.91
68994;BME280;56054;50.968;5.816;2023-04-05T13:54:02;101200.22;;;12.97;35.88
68994;BME280;56054;50.968;5.816;2023-04-05T13:57:09;101197.47;;;13.09;35.22
68994;BME280;56054;50.968;5.816;2023-04-05T14:00:19;101195.94;;;12.69;35.62
68994;BME280;56054;50.968;5.816;2023-04-05T14:03:26;101203.03;;;12.43;35.00
68994;BME280;56054;50.968;5.816;2023-04-05T14:06:33;101198.38;;;12.53;35.15
68994;BME280;56054;50.968;5.816;2023-04-05T14:10:00;101195.09;;;12.83;35.43
68994;BME280;56054;50.968;5.816;2023-04-05T14:13:07;101191.44;;;12.67;34.70
68994;BME280;56054;50.968;5.816;2023-04-05T14:16:14;101185.91;;;12.75;34.37
68994;BME280;56054;50.968;5.816;2023-04-05T14:19:27;101193.22;;;12.68;34.80
68994;BME280;56054;50.968;5.816;2023-04-05T14:22:33;101186.28;;;12.96;35.33
68994;BME280;56054;50.968;5.816;2023-04-05T14:25:46;101168.34;;;12.73;35.44
68994;BME280;56054;50.968;5.816;2023-04-05T14:28:56;101154.69;;;12.77;35.66
68994;BME280;56054;50.968;5.816;2023-04-05T14:32:03;101165.03;;;12.75;35.03
68994;BME280;56054;50.968;5.816;2023-04-05T14:35:10;101152.50;;;12.98;35.42
68994;BME280;56054;50.968;5.816;2023-04-05T14:38:17;101157.88;;;13.01;34.99
68994;BME280;56054;50.968;5.816;2023-04-05T14:41:50;101147.59;;;12.46;35.55
68994;BME280;56054;50.968;5.816;2023-04-05T14:45:04;101149.75;;;12.81;34.32
68994;BME280;56054;50.968;5.816;2023-04-05T14:48:11;101152.84;;;13.04;35.23
68994;BME280;56054;50.968;5.816;2023-04-05T14:51:18;101145.59;;;13.43;35.79
68994;BME280;56054;50.968;5.816;2023-04-05T14:54:25;101145.00;;;13.19;36.04
68994;BME280;56054;50.968;5.816;2023-04-05T14:57:32;101146.50;;;13.28;35.34
68994;BME280;56054;50.968;5.816;2023-04-05T15:00:39;101139.19;;;13.08;35.99
68994;BME280;56054;50.968;5.816;2023-04-05T15:03:46;101127.84;;;13.22;36.23
68994;BME280;56054;50.968;5.816;2023-04-05T15:06:53;101142.34;;;12.59;36.17
68994;BME280;56054;50.968;5.816;2023-04-05T15:10:26;101141.66;;;12.92;36.74
68994;BME280;56054;50.968;5.816;2023-04-05T15:13:33;101133.03;;;12.50;36.60
68994;BME280;56054;50.968;5.816;2023-04-05T15:16:40;101140.00;;;12.64;36.05
68994;BME280;56054;50.968;5.816;2023-04-05T15:19:47;101134.13;;;13.11;36.75
68994;BME280;56054;50.968;5.816;2023-04-05T15:22:56;101132.41;;;12.97;36.33
68994;BME280;56054;50.968;5.816;2023-04-05T15:26:03;101124.78;;;13.15;36.90
68994;BME280;56054;50.968;5.816;2023-04-05T15:29:10;101121.34;;;13.01;36.63
68994;BME280;56054;50.968;5.816;2023-04-05T15:32:17;101121.50;;;13.32;35.37
68994;BME280;56054;50.968;5.816;2023-04-05T15:35:24;101125.94;;;12.75;35.43
68994;BME280;56054;50.968;5.816;2023-04-05T15:38:31;101117.84;;;13.15;36.41
68994;BME280;56054;50.968;5.816;2023-04-05T15:41:38;101116.41;;;13.50;35.78
68994;BME280;56054;50.968;5.816;2023-04-05T15:44:45;101110.06;;;12.72;34.90
68994;BME280;56054;50.968;5.816;2023-04-05T15:47:52;101117.44;;;13.37;35.26
68994;BME280;56054;50.968;5.816;2023-04-05T15:50:59;101112.75;;;13.17;35.78
68994;BME280;56054;50.968;5.816;2023-04-05T15:54:06;101102.19;;;13.15;36.13
68994;BME280;56054;50.968;5.816;2023-04-05T15:57:13;101114.97;;;12.81;36.18
68994;BME280;56054;50.968;5.816;2023-04-05T16:00:26;101105.41;;;12.81;35.75
68994;BME280;56054;50.968;5.816;2023-04-05T16:03:33;101094.88;;;12.65;35.64
68994;BME280;56054;50.968;5.816;2023-04-05T16:06:40;101105.50;;;12.68;35.27
68994;BME280;56054;50.968;5.816;2023-04-05T16:09:47;101103.50;;;12.64;35.97
68994;BME280;56054;50.968;5.816;2023-04-05T16:12:55;101094.63;;;12.32;35.56
68994;BME280;56054;50.968;5.816;2023-04-05T16:16:02;101098.00;;;12.31;35.86
68994;BME280;56054;50.968;5.816;2023-04-05T16:19:09;101098.41;;;12.37;36.54
68994;BME280;56054;50.968;5.816;2023-04-05T16:22:16;101092.50;;;12.55;36.17
68994;BME280;56054;50.968;5.816;2023-04-05T16:25:25;101101.97;;;12.25;35.98
68994;BME280;56054;50.968;5.816;2023-04-05T16:28:31;101094.19;;;12.11;36.39
68994;BME280;56054;50.968;5.816;2023-04-05T16:31:40;101089.91;;;11.85;35.14
68994;BME280;56054;50.968;5.816;2023-04-05T16:34:56;101088.91;;;11.83;35.82
68994;BME280;56054;50.968;5.816;2023-04-05T16:38:35;101083.50;;;11.80;35.53
68994;BME280;56054;50.968;5.816;2023-04-05T16:41:41;101087.31;;;11.85;36.56
68994;BME280;56054;50.968;5.816;2023-04-05T16:44:48;101082.94;;;11.57;36.53
68994;BME280;56054;50.968;5.816;2023-04-05T16:47:55;101082.72;;;11.54;36.85
68994;BME280;56054;50.968;5.816;2023-04-05T16:51:28;101074.72;;;11.38;36.67
68994;BME280;56054;50.968;5.816;2023-04-05T16:55:10;101080.31;;;11.71;37.48
68994;BME280;56054;50.968;5.816;2023-04-05T16:58:17;101085.03;;;11.50;36.99
68994;BME280;56054;50.968;5.816;2023-04-05T17:01:26;101073.31;;;11.43;36.70
68994;BME280;56054;50.968;5.816;2023-04-05T17:04:33;101080.63;;;11.35;36.69
68994;BME280;56054;50.968;5.816;2023-04-05T17:07:42;101079.13;;;11.26;36.77
68994;BME280;56054;50.968;5.816;2023-04-05T17:11:00;101087.31;;;11.19;37.40
68994;BME280;56054;50.968;5.816;2023-04-05T17:14:10;101082.94;;;11.31;37.22
68994;BME280;56054;50.968;5.816;2023-04-05T17:17:43;101085.75;;;11.34;38.15
68994;BME280;56054;50.968;5.816;2023-04-05T17:20:49;101083.44;;;11.12;38.15
68994;BME280;56054;50.968;5.816;2023-04-05T17:23:56;101080.41;;;11.06;36.67
68994;BME280;56054;50.968;5.816;2023-04-05T17:27:03;101081.81;;;11.01;36.84
68994;BME280;56054;50.968;5.816;2023-04-05T17:30:11;101087.13;;;11.02;37.19
68994;BME280;56054;50.968;5.816;2023-04-05T17:33:44;101080.13;;;11.14;37.39
68994;BME280;56054;50.968;5.816;2023-04-05T17:36:51;101083.22;;;11.09;38.34
68994;BME280;56054;50.968;5.816;2023-04-05T17:40:02;101090.88;;;10.94;37.87
68994;BME280;56054;50.968;5.816;2023-04-05T17:43:08;101089.16;;;10.81;37.55
68994;BME280;56054;50.968;5.816;2023-04-05T17:46:50;101084.59;;;10.90;38.36
68994;BME280;56054;50.968;5.816;2023-04-05T17:50:10;101079.41;;;10.90;39.11
68994;BME280;56054;50.968;5.816;2023-04-05T17:53:17;101078.63;;;10.66;38.28
68994;BME280;56054;50.968;5.816;2023-04-05T17:56:24;101079.19;;;10.49;37.68
68994;BME280;56054;50.968;5.816;2023-04-05T17:59:31;101086.38;;;10.53;39.23
68994;BME280;56054;50.968;5.816;2023-04-05T18:02:42;101085.97;;;10.47;38.10
68994;BME280;56054;50.968;5.816;2023-04-05T18:05:51;101081.66;;;10.47;38.80
68994;BME280;56054;50.968;5.816;2023-04-05T18:09:00;101078.91;;;10.33;38.63
68994;BME280;56054;50.968;5.816;2023-04-05T18:12:08;101081.63;;;10.22;38.81
68994;BME280;56054;50.968;5.816;2023-04-05T18:15:15;101077.22;;;10.21;39.21
68994;BME280;56054;50.968;5.816;2023-04-05T18:18:23;101083.00;;;10.17;40.01
68994;BME280;56054;50.968;5.816;2023-04-05T18:21:30;101089.81;;;10.03;40.21
68994;BME280;56054;50.968;5.816;2023-04-05T18:24:37;101082.94;;;10.04;39.96
68994;BME280;56054;50.968;5.816;2023-04-05T18:27:48;101085.44;;;10.02;40.34
68994;BME280;56054;50.968;5.816;2023-04-05T18:30:55;101084.09;;;9.96;40.30
68994;BME280;56054;50.968;5.816;2023-04-05T18:34:02;101089.84;;;9.92;40.53
68994;BME280;56054;50.968;5.816;2023-04-05T18:37:11;101088.81;;;9.90;41.75
68994;BME280;56054;50.968;5.816;2023-04-05T18:40:17;101084.88;;;9.95;41.27
68994;BME280;56054;50.968;5.816;2023-04-05T18:43:24;101096.88;;;9.69;41.38
68994;BME280;56054;50.968;5.816;2023-04-05T18:46:31;101090.22;;;9.73;40.60
68994;BME280;56054;50.968;5.816;2023-04-05T18:49:38;101089.66;;;9.77;44.64
68994;BME280;56054;50.968;5.816;2023-04-05T18:52:45;101100.03;;;9.65;48.16
68994;BME280;56054;50.968;5.816;2023-04-05T18:55:55;101098.34;;;9.65;47.73
68994;BME280;56054;50.968;5.816;2023-04-05T18:59:06;101090.25;;;9.61;47.72
68994;BME280;56054;50.968;5.816;2023-04-05T19:02:14;101094.56;;;9.49;43.86
68994;BME280;56054;50.968;5.816;2023-04-05T19:05:21;101101.19;;;9.57;50.39
68994;BME280;56054;50.968;5.816;2023-04-05T19:08:27;101098.59;;;9.57;50.24
68994;BME280;56054;50.968;5.816;2023-04-05T19:11:34;101102.56;;;9.63;51.74
68994;BME280;56054;50.968;5.816;2023-04-05T19:14:41;101107.94;;;9.67;53.86
68994;BME280;56054;50.968;5.816;2023-04-05T19:17:49;101098.03;;;9.61;53.53
68994;BME280;56054;50.968;5.816;2023-04-05T19:20:59;101108.75;;;9.42;53.73
68994;BME280;56054;50.968;5.816;2023-04-05T19:24:06;101098.72;;;9.47;53.94
68994;BME280;56054;50.968;5.816;2023-04-05T19:27:13;101102.41;;;9.38;54.61
68994;BME280;56054;50.968;5.816;2023-04-05T19:30:46;101105.69;;;9.36;55.03
68994;BME280;56054;50.968;5.816;2023-04-05T19:33:54;101100.84;;;9.29;54.27
68994;BME280;56054;50.968;5.816;2023-04-05T19:37:07;101109.22;;;9.25;54.15
68994;BME280;56054;50.968;5.816;2023-04-05T19:40:13;101118.53;;;9.11;54.96
68994;BME280;56054;50.968;5.816;2023-04-05T19:43:46;101108.81;;;8.96;53.32
68994;BME280;56054;50.968;5.816;2023-04-05T19:46:53;101113.19;;;8.86;53.18
68994;BME280;56054;50.968;5.816;2023-04-05T19:50:46;101104.31;;;8.94;58.37
68994;BME280;56054;50.968;5.816;2023-04-05T19:53:57;101106.00;;;8.93;58.31
68994;BME280;56054;50.968;5.816;2023-04-05T19:57:13;101105.25;;;8.72;58.32
68994;BME280;56054;50.968;5.816;2023-04-05T20:00:44;101100.84;;;8.60;59.05
68994;BME280;56054;50.968;5.816;2023-04-05T20:03:50;101103.91;;;8.77;60.14
68994;BME280;56054;50.968;5.816;2023-04-05T20:06:57;101098.16;;;8.70;59.32
68994;BME280;56054;50.968;5.816;2023-04-05T20:10:13;101087.81;;;8.70;60.83
68994;BME280;56054;50.968;5.816;2023-04-05T20:13:21;101090.47;;;8.60;60.70
68994;BME280;56054;50.968;5.816;2023-04-05T20:16:31;101096.28;;;8.45;61.24
68994;BME280;56054;50.968;5.816;2023-04-05T20:19:40;101088.50;;;8.45;61.54
68994;BME280;56054;50.968;5.816;2023-04-05T20:22:50;101093.69;;;8.45;61.36
68994;BME280;56054;50.968;5.816;2023-04-05T20:26:00;101089.84;;;8.40;61.94
68994;BME280;56054;50.968;5.816;2023-04-05T20:29:10;101086.88;;;8.35;62.71
68994;BME280;56054;50.968;5.816;2023-04-05T20:32:22;101084.78;;;8.20;63.38
68994;BME280;56054;50.968;5.816;2023-04-05T20:35:33;101086.66;;;8.10;62.61
68994;BME280;56054;50.968;5.816;2023-04-05T20:38:52;101084.44;;;7.18;61.56
68994;BME280;56054;50.968;5.816;2023-04-05T20:42:06;101082.84;;;7.73;62.81
68994;BME280;56054;50.968;5.816;2023-04-05T20:45:15;101078.09;;;7.89;61.34
68994;BME280;56054;50.968;5.816;2023-04-05T20:48:26;101077.31;;;7.68;60.67
68994;BME280;56054;50.968;5.816;2023-04-05T20:51:32;101071.53;;;7.83;61.44
68994;BME280;56054;50.968;5.816;2023-04-05T20:54:39;101074.16;;;7.72;60.62
68994;BME280;56054;50.968;5.816;2023-04-05T20:57:51;101079.09;;;7.69;61.66
68994;BME280;56054;50.968;5.816;2023-04-05T21:00:58;101078.97;;;7.68;60.83
68994;BME280;56054;50.968;5.816;2023-04-05T21:04:06;101073.19;;;7.60;62.76
68994;BME280;56054;50.968;5.816;2023-04-05T21:07:22;101071.53;;;7.61;62.04
68994;BME280;56054;50.968;5.816;2023-04-05T21:11:06;101069.31;;;7.55;63.58
68994;BME280;56054;50.968;5.816;2023-04-05T21:14:12;101060.38;;;7.62;64.03
68994;BME280;56054;50.968;5.816;2023-04-05T21:17:20;101073.84;;;7.58;64.33
68994;BME280;56054;50.968;5.816;2023-04-05T21:20:32;101076.47;;;7.47;64.04
68994;BME280;56054;50.968;5.816;2023-04-05T21:23:39;101073.88;;;7.47;64.89
68994;BME280;56054;50.968;5.816;2023-04-05T21:26:51;101064.06;;;7.43;65.11
68994;BME280;56054;50.968;5.816;2023-04-05T21:29:57;101065.38;;;7.38;66.93
68994;BME280;56054;50.968;5.816;2023-04-05T21:33:10;101053.16;;;7.25;66.45
68994;BME280;56054;50.968;5.816;2023-04-05T21:36:17;101060.38;;;7.19;66.47
68994;BME280;56054;50.968;5.816;2023-04-05T21:39:24;101054.50;;;7.10;65.78
68994;BME280;56054;50.968;5.816;2023-04-05T21:42:31;101060.16;;;7.06;66.23
68994;BME280;56054;50.968;5.816;2023-04-05T21:45:38;101055.53;;;7.12;66.97
68994;BME280;56054;50.968;5.816;2023-04-05T21:48:45;101060.97;;;6.95;68.37
68994;BME280;56054;50.968;5.816;2023-04-05T21:51:53;101060.19;;;6.96;66.56
68994;BME280;56054;50.968;5.816;2023-04-05T21:55:01;101062.25;;;6.90;65.23
68994;BME280;56054;50.968;5.816;2023-04-05T21:58:09;101054.66;;;6.91;65.52
68994;BME280;56054;50.968;5.816;2023-04-05T22:01:15;101053.47;;;6.98;66.60
68994;BME280;56054;50.968;5.816;2023-04-05T22:04:22;101059.44;;;6.76;65.56
68994;BME280;56054;50.968;5.816;2023-04-05T22:07:30;101051.97;;;6.69;65.71
68994;BME280;56054;50.968;5.816;2023-04-05T22:17:55;101044.34;;;6.71;66.49
68994;BME280;56054;50.968;5.816;2023-04-05T22:21:32;101041.09;;;6.63;66.79
68994;BME280;56054;50.968;5.816;2023-04-05T22:25:31;101052.09;;;6.40;65.87
68994;BME280;56054;50.968;5.816;2023-04-05T22:28:57;101041.25;;;6.54;65.74